createdAt,value
2022-12-26T00:01:55.668Z,11.30
2022-12-26T00:04:49.354Z,11.30
2022-12-26T00:07:15.914Z,11.30
2022-12-26T00:09:44.923Z,11.20
2022-12-26T00:12:13.512Z,11.30
2022-12-26T00:14:42.520Z,11.30
2022-12-26T00:17:11.290Z,11.30
2022-12-26T00:19:42.155Z,11.30
2022-12-26T00:22:10.761Z,11.30
2022-12-26T00:24:39.896Z,11.30
2022-12-26T00:27:08.486Z,11.30
2022-12-26T00:29:36.943Z,11.30
2022-12-26T00:32:06.174Z,11.30
2022-12-26T00:34:35.037Z,11.30
2022-12-26T00:37:05.406Z,11.30
2022-12-26T00:39:34.200Z,11.20
2022-12-26T00:42:02.879Z,11.20
2022-12-26T00:44:31.642Z,11.20
2022-12-26T00:47:00.350Z,11.20
2022-12-26T00:50:12.666Z,11.20
2022-12-26T00:52:20.904Z,11.10
2022-12-26T00:54:49.547Z,11.10
2022-12-26T00:57:18.106Z,11.10
2022-12-26T00:59:46.708Z,11.10
2022-12-26T01:02:29.046Z,11.10
2022-12-26T01:04:57.958Z,11.10
2022-12-26T01:07:28.343Z,11.10
2022-12-26T01:09:57.023Z,11.10
2022-12-26T01:12:27.526Z,11.10
2022-12-26T01:14:57.253Z,11.10
2022-12-26T01:17:26.080Z,11.10
2022-12-26T01:19:54.842Z,11.10
2022-12-26T01:22:24.034Z,11.10
2022-12-26T01:24:57.275Z,11.10
2022-12-26T01:27:27.799Z,11.10
2022-12-26T01:29:58.153Z,11.00
2022-12-26T01:32:26.829Z,11.00
2022-12-26T01:34:56.547Z,11.00
2022-12-26T01:37:25.368Z,11.00
2022-12-26T01:39:55.955Z,11.00
2022-12-26T01:42:26.510Z,11.00
2022-12-26T01:45:04.836Z,11.00
2022-12-26T01:47:43.370Z,11.00
2022-12-26T01:50:32.985Z,11.00
2022-12-26T01:53:06.278Z,11.00
2022-12-26T01:55:36.559Z,10.90
2022-12-26T01:58:12.107Z,11.00
2022-12-26T02:00:41.023Z,10.90
2022-12-26T02:03:28.220Z,11.00
2022-12-26T02:05:59.992Z,11.00
2022-12-26T02:08:31.679Z,11.00
2022-12-26T02:11:09.071Z,11.00
2022-12-26T02:13:39.642Z,11.00
2022-12-26T02:16:10.998Z,11.00
2022-12-26T02:18:40.573Z,11.00
2022-12-26T02:21:31.450Z,11.00
2022-12-26T02:24:51.817Z,11.00
2022-12-26T02:27:45.479Z,10.90
2022-12-26T02:30:42.958Z,10.90
2022-12-26T02:33:38.444Z,11.00
2022-12-26T02:36:36.559Z,11.00
2022-12-26T02:39:45.420Z,11.00
2022-12-26T02:42:17.451Z,11.00
2022-12-26T02:45:08.455Z,11.00
2022-12-26T02:47:46.073Z,11.00
2022-12-26T02:50:42.332Z,11.00
2022-12-26T02:53:38.565Z,11.00
2022-12-26T02:56:29.748Z,11.00
2022-12-26T02:59:56.380Z,11.00
2022-12-26T03:02:42.224Z,10.90
2022-12-26T03:05:37.082Z,11.00
2022-12-26T03:08:25.503Z,11.00
2022-12-26T03:11:13.843Z,10.90
2022-12-26T03:13:45.491Z,10.90
2022-12-26T03:16:33.275Z,10.90
2022-12-26T03:19:05.308Z,10.80
2022-12-26T03:21:39.486Z,10.70
2022-12-26T03:24:11.324Z,10.70
2022-12-26T03:26:47.695Z,10.60
2022-12-26T03:29:36.545Z,10.60
2022-12-26T03:32:07.547Z,10.60
2022-12-26T03:34:41.476Z,10.60
2022-12-26T03:37:48.516Z,10.60
2022-12-26T03:40:43.854Z,10.60
2022-12-26T03:43:40.028Z,10.70
2022-12-26T03:46:35.895Z,10.70
2022-12-26T03:49:28.175Z,10.70
2022-12-26T03:52:22.242Z,10.70
2022-12-26T03:55:15.049Z,10.70
2022-12-26T03:58:07.980Z,10.70
2022-12-26T04:00:55.598Z,10.60
2022-12-26T04:03:44.487Z,10.60
2022-12-26T04:06:37.426Z,10.60
2022-12-26T04:09:29.192Z,10.60
2022-12-26T04:12:19.281Z,10.60
2022-12-26T04:15:09.852Z,10.50
2022-12-26T04:18:00.590Z,10.40
2022-12-26T04:20:35.414Z,10.40
2022-12-26T04:23:28.496Z,10.30
2022-12-26T04:26:21.176Z,10.40
2022-12-26T04:29:09.184Z,10.40
2022-12-26T04:32:01.185Z,10.30
2022-12-26T04:34:56.488Z,10.30
2022-12-26T04:37:44.960Z,10.20
2022-12-26T04:40:36.550Z,10.20
2022-12-26T04:43:48.822Z,10.20
2022-12-26T04:46:14.826Z,10.20
2022-12-26T04:49:03.504Z,10.20
2022-12-26T04:51:32.343Z,10.20
2022-12-26T04:54:00.874Z,10.20
2022-12-26T04:56:29.504Z,10.20
2022-12-26T04:58:58.200Z,10.10
2022-12-26T05:01:56.910Z,10.20
2022-12-26T05:04:42.888Z,10.20
2022-12-26T05:07:35.205Z,10.20
2022-12-26T05:10:04.788Z,10.20
2022-12-26T05:12:33.537Z,10.20
2022-12-26T05:15:02.292Z,10.20
2022-12-26T05:17:49.527Z,10.20
2022-12-26T05:20:35.415Z,10.20
2022-12-26T05:23:22.128Z,10.30
2022-12-26T05:26:16.427Z,10.30
2022-12-26T05:28:46.001Z,10.30
2022-12-26T05:31:18.068Z,10.30
2022-12-26T05:34:05.155Z,10.30
2022-12-26T05:36:37.496Z,10.30
2022-12-26T05:39:07.571Z,10.30
2022-12-26T05:41:36.218Z,10.30
2022-12-26T05:44:05.394Z,10.30
2022-12-26T05:46:34.375Z,10.20
2022-12-26T05:49:05.081Z,10.20
2022-12-26T05:51:35.768Z,10.20
2022-12-26T05:54:05.036Z,10.20
2022-12-26T05:56:33.801Z,10.20
2022-12-26T05:59:03.075Z,10.20
2022-12-26T06:01:31.996Z,10.20
2022-12-26T06:04:02.102Z,10.10
2022-12-26T06:06:32.497Z,10.10
2022-12-26T06:09:01.402Z,10.10
2022-12-26T06:11:30.009Z,10.10
2022-12-26T06:13:59.022Z,10.10
2022-12-26T06:16:28.762Z,10.10
2022-12-26T06:18:57.504Z,10.10
2022-12-26T06:21:26.506Z,10.10
2022-12-26T06:23:56.604Z,10.10
2022-12-26T06:26:25.321Z,10.10
2022-12-26T06:28:54.285Z,10.00
2022-12-26T06:31:25.425Z,10.00
2022-12-26T06:33:58.335Z,10.00
2022-12-26T06:36:28.938Z,10.10
2022-12-26T06:39:01.366Z,10.10
2022-12-26T06:41:30.203Z,10.10
2022-12-26T06:43:58.697Z,10.10
2022-12-26T06:46:28.630Z,10.10
2022-12-26T06:48:57.372Z,10.10
2022-12-26T06:51:28.609Z,10.10
2022-12-26T06:54:02.369Z,10.20
2022-12-26T06:56:32.083Z,10.20
2022-12-26T06:59:02.754Z,10.20
2022-12-26T07:01:33.847Z,10.20
2022-12-26T07:04:04.403Z,10.20
2022-12-26T07:06:34.364Z,10.20
2022-12-26T07:09:06.653Z,10.20
2022-12-26T07:11:37.273Z,10.30
2022-12-26T07:14:06.377Z,10.30
2022-12-26T07:16:36.952Z,10.30
2022-12-26T07:19:06.161Z,10.40
2022-12-26T07:21:40.437Z,10.30
2022-12-26T07:24:17.005Z,10.30
2022-12-26T07:26:46.571Z,10.30
2022-12-26T07:29:16.007Z,10.30
2022-12-26T07:31:47.520Z,10.30
2022-12-26T07:34:16.213Z,10.40
2022-12-26T07:36:44.777Z,10.40
2022-12-26T07:39:16.368Z,10.30
2022-12-26T07:42:00.470Z,10.30
2022-12-26T07:44:30.618Z,10.40
2022-12-26T07:47:00.787Z,10.50
2022-12-26T07:49:29.353Z,10.50
2022-12-26T07:51:58.583Z,10.60
2022-12-26T07:54:32.443Z,10.60
2022-12-26T07:57:29.605Z,10.60
2022-12-26T07:59:53.276Z,10.70
2022-12-26T08:02:24.493Z,10.70
2022-12-26T08:04:53.357Z,10.70
2022-12-26T08:07:21.934Z,10.70
2022-12-26T08:09:51.969Z,10.70
2022-12-26T08:12:21.912Z,10.70
2022-12-26T08:14:50.569Z,10.70
2022-12-26T08:17:19.480Z,10.80
2022-12-26T08:19:48.011Z,10.80
2022-12-26T08:22:16.901Z,10.80
2022-12-26T08:24:45.397Z,10.80
2022-12-26T08:27:16.328Z,10.80
2022-12-26T08:29:45.932Z,10.80
2022-12-26T08:32:14.538Z,10.80
2022-12-26T08:34:43.379Z,10.80
2022-12-26T08:37:12.029Z,10.70
2022-12-26T08:39:40.941Z,10.70
2022-12-26T08:42:09.844Z,10.60
2022-12-26T08:44:39.980Z,10.50
2022-12-26T08:47:08.647Z,10.60
2022-12-26T08:49:37.212Z,10.60
2022-12-26T08:52:06.286Z,10.70
2022-12-26T08:54:35.275Z,10.80
2022-12-26T08:57:04.083Z,10.80
2022-12-26T08:59:32.596Z,10.70
2022-12-26T09:02:03.119Z,10.80
2022-12-26T09:04:32.041Z,10.80
2022-12-26T09:07:00.624Z,10.70
2022-12-26T09:09:30.004Z,10.70
2022-12-26T09:11:58.659Z,10.70
2022-12-26T09:14:27.409Z,10.70
2022-12-26T09:16:56.599Z,10.70
2022-12-26T09:19:29.936Z,10.70
2022-12-26T09:22:12.164Z,10.70
2022-12-26T09:24:40.595Z,10.70
2022-12-26T09:27:10.472Z,10.60
2022-12-26T09:29:39.611Z,10.60
2022-12-26T09:32:08.450Z,10.60
2022-12-26T10:14:24.493Z,11.10
2022-12-26T10:20:59.155Z,11.20
2022-12-26T12:01:19.228Z,12.20
2022-12-26T13:24:04.021Z,10.00
2022-12-26T14:32:02.365Z,9.30
2022-12-26T14:34:48.222Z,9.20
2022-12-26T14:37:24.886Z,9.20
2022-12-26T14:40:09.872Z,9.10
2022-12-26T14:43:12.903Z,9.10
2022-12-26T14:45:49.417Z,9.00
2022-12-26T14:48:54.747Z,8.90
2022-12-26T14:51:38.704Z,8.80
2022-12-26T14:54:34.084Z,8.80
2022-12-26T14:57:38.748Z,8.70
2022-12-26T15:00:35.692Z,8.70
2022-12-26T15:03:32.479Z,8.70
2022-12-26T15:06:25.145Z,8.60
2022-12-26T15:09:11.442Z,8.60
2022-12-26T15:12:05.925Z,8.50
2022-12-26T15:14:58.424Z,8.40
2022-12-26T15:17:39.205Z,8.30
2022-12-26T15:20:55.225Z,8.30
2022-12-26T15:23:55.119Z,8.30
2022-12-26T15:26:53.408Z,8.10
2022-12-26T15:29:55.499Z,8.00
2022-12-26T15:32:34.308Z,7.90
2022-12-26T15:35:12.704Z,7.90
2022-12-26T15:38:12.706Z,7.80
2022-12-26T15:40:52.970Z,7.70
2022-12-26T15:43:45.396Z,7.60
2022-12-26T15:46:22.666Z,7.70
2022-12-26T15:49:14.037Z,7.60
2022-12-26T15:51:56.280Z,7.60
2022-12-26T15:54:46.668Z,7.40
2022-12-26T15:57:27.963Z,7.30
2022-12-26T16:00:15.112Z,7.20
2022-12-26T16:02:56.528Z,7.10
2022-12-26T16:05:50.375Z,7.00
2022-12-26T16:13:11.553Z,6.90
2022-12-26T16:19:14.788Z,6.80
2022-12-26T16:22:06.215Z,6.70
2022-12-26T16:45:25.103Z,6.80
2022-12-26T16:47:59.178Z,6.70
2022-12-26T16:50:33.221Z,6.50
2022-12-26T16:56:27.237Z,6.40
2022-12-26T16:59:04.489Z,6.30
2022-12-26T17:01:41.889Z,6.20
2022-12-26T17:04:23.877Z,6.00
2022-12-26T17:06:56.573Z,5.90
2022-12-26T17:09:28.146Z,5.90
2022-12-26T17:11:59.918Z,5.80
2022-12-26T17:14:48.758Z,5.80
2022-12-26T17:17:30.728Z,5.90
2022-12-26T17:20:40.626Z,5.80
2022-12-26T17:23:42.755Z,5.90
2022-12-26T17:26:25.815Z,5.90
2022-12-26T17:28:54.992Z,5.90
2022-12-26T17:31:38.199Z,5.70
2022-12-26T17:34:14.629Z,5.80
2022-12-26T17:37:18.006Z,5.90
2022-12-26T17:39:34.580Z,5.90
2022-12-26T17:42:04.036Z,5.80
2022-12-26T17:44:40.425Z,5.80
2022-12-26T17:47:18.901Z,5.70
2022-12-26T17:49:51.744Z,5.50
2022-12-26T17:52:24.318Z,5.50
2022-12-26T17:54:58.528Z,5.30
2022-12-26T17:57:30.148Z,5.30
2022-12-26T17:59:59.853Z,5.20
2022-12-26T18:02:28.886Z,5.10
2022-12-26T18:04:58.085Z,5.10
2022-12-26T18:07:31.515Z,5.00
2022-12-26T18:10:01.348Z,5.00
2022-12-26T18:12:30.534Z,4.90
2022-12-26T18:15:02.482Z,4.90
2022-12-26T18:17:34.993Z,4.90
2022-12-26T18:20:06.444Z,4.80
2022-12-26T18:22:44.747Z,4.70
2022-12-26T18:25:18.608Z,4.70
2022-12-26T18:27:48.089Z,4.60
2022-12-26T18:30:21.572Z,4.60
2022-12-26T18:32:53.091Z,4.60
2022-12-26T18:35:22.590Z,4.60
2022-12-26T18:37:54.471Z,4.40
2022-12-26T18:40:33.335Z,4.40
2022-12-26T18:43:03.219Z,4.40
2022-12-26T18:45:33.002Z,4.30
2022-12-26T18:48:02.838Z,4.40
2022-12-26T18:51:52.657Z,4.30
2022-12-26T19:00:50.433Z,4.20
2022-12-26T19:03:19.887Z,4.10
2022-12-26T19:05:49.689Z,4.00
2022-12-26T19:08:19.278Z,4.00
2022-12-26T19:10:49.153Z,4.00
2022-12-26T19:13:18.645Z,3.90
2022-12-26T19:15:49.576Z,3.90
2022-12-26T19:18:18.691Z,4.00
2022-12-26T19:20:49.695Z,3.90
2022-12-26T19:23:22.204Z,3.90
2022-12-26T19:25:51.409Z,3.80
2022-12-26T19:28:20.600Z,3.70
2022-12-26T19:30:51.466Z,3.70
2022-12-26T19:33:20.871Z,3.60
2022-12-26T19:35:57.121Z,3.70
2022-12-26T19:38:27.311Z,3.70
2022-12-26T19:41:01.945Z,3.80
2022-12-26T19:43:30.766Z,3.70
2022-12-26T19:46:05.714Z,3.60
2022-12-26T19:48:35.644Z,3.50
2022-12-26T19:51:05.611Z,3.50
2022-12-26T19:53:34.658Z,3.50
2022-12-26T19:56:09.484Z,3.60
2022-12-26T19:58:38.955Z,3.60
2022-12-26T20:01:11.319Z,3.60
2022-12-26T20:03:41.219Z,3.60
2022-12-26T20:06:12.131Z,3.50
2022-12-26T20:08:41.361Z,3.50
2022-12-26T20:11:13.187Z,3.40
2022-12-26T20:13:43.073Z,3.30
2022-12-26T20:16:45.808Z,3.40
2022-12-26T20:19:05.286Z,3.40
2022-12-26T20:21:34.219Z,3.50
2022-12-26T20:24:03.346Z,3.50
2022-12-26T20:26:32.375Z,3.50
2022-12-26T20:29:02.575Z,3.50
2022-12-26T20:31:34.181Z,3.60
2022-12-26T20:34:03.382Z,3.60
2022-12-26T20:36:34.117Z,3.60
2022-12-26T20:39:04.662Z,3.60
2022-12-26T20:41:33.745Z,3.50
2022-12-26T20:44:02.353Z,3.50
2022-12-26T20:46:34.557Z,3.60
2022-12-26T20:49:05.118Z,3.50
2022-12-26T20:51:37.695Z,3.50
2022-12-26T20:54:07.523Z,3.50
2022-12-26T20:56:37.531Z,3.50
2022-12-26T20:59:09.292Z,3.40
2022-12-26T21:01:40.719Z,3.60
2022-12-26T21:04:12.045Z,3.60
2022-12-26T21:06:41.066Z,3.70
2022-12-26T21:09:09.758Z,3.90
2022-12-26T21:11:41.619Z,3.90
2022-12-26T21:14:13.657Z,3.90
2022-12-26T21:16:46.661Z,4.00
2022-12-26T21:19:17.225Z,4.10
2022-12-26T21:21:47.896Z,4.20
2022-12-26T21:24:19.776Z,4.30
2022-12-26T21:26:48.927Z,4.30
2022-12-26T21:29:22.629Z,4.30
2022-12-26T21:31:53.888Z,4.30
2022-12-26T21:34:24.225Z,4.30
2022-12-26T21:37:10.849Z,4.40
2022-12-26T21:39:39.908Z,4.40
2022-12-26T21:42:09.741Z,4.40
2022-12-26T21:44:39.137Z,4.30
2022-12-26T21:47:10.113Z,4.30
2022-12-26T21:49:39.323Z,4.30
2022-12-26T21:52:08.638Z,4.20
2022-12-26T21:54:54.729Z,4.10
2022-12-26T21:57:24.142Z,4.10
2022-12-26T21:59:59.941Z,4.00
2022-12-26T22:02:50.781Z,4.00
2022-12-26T22:05:21.525Z,4.00
2022-12-26T22:07:55.418Z,4.10
2022-12-26T22:10:41.990Z,4.10
2022-12-26T22:13:10.989Z,4.10
2022-12-26T22:16:01.551Z,4.20
2022-12-26T22:18:33.307Z,4.20
2022-12-26T22:21:06.782Z,4.30
2022-12-26T22:23:36.635Z,4.30
2022-12-26T22:26:06.510Z,4.30
2022-12-26T22:28:35.670Z,4.30
2022-12-26T22:31:04.615Z,4.30
2022-12-26T22:33:36.259Z,4.30
2022-12-26T22:36:07.517Z,4.30
2022-12-26T22:38:37.154Z,4.30
2022-12-26T22:41:06.835Z,4.40
2022-12-26T22:43:36.902Z,4.30
2022-12-26T22:46:05.709Z,4.30
2022-12-26T22:48:36.045Z,4.30
2022-12-26T22:51:05.237Z,4.30
2022-12-26T22:53:34.437Z,4.40
2022-12-26T22:56:06.202Z,4.40
2022-12-26T22:58:35.327Z,4.50
2022-12-26T23:01:04.995Z,4.50
2022-12-26T23:03:34.563Z,4.60
2022-12-26T23:06:19.363Z,4.50
2022-12-26T23:08:49.032Z,4.50
2022-12-26T23:11:18.391Z,4.50
2022-12-26T23:13:48.038Z,4.50
2022-12-26T23:16:28.056Z,4.60
2022-12-26T23:19:22.322Z,4.60
2022-12-26T23:21:53.776Z,4.40
2022-12-26T23:24:27.161Z,4.30
2022-12-26T23:27:20.357Z,4.10
2022-12-26T23:30:07.091Z,4.10
2022-12-26T23:32:36.573Z,4.10
2022-12-26T23:35:05.695Z,4.00
2022-12-26T23:37:35.990Z,4.00
2022-12-26T23:40:05.590Z,4.10
2022-12-26T23:42:34.559Z,4.10
2022-12-26T23:45:03.712Z,4.10
2022-12-26T23:47:33.613Z,4.10
2022-12-26T23:50:02.449Z,4.10
2022-12-26T23:52:31.765Z,4.10
2022-12-26T23:55:01.932Z,4.00
2022-12-26T23:57:30.821Z,4.00
